Flight Track Log - Related Links

Times and Time Zones

All times are in EDT time to prevent confusion due to time zone crossing. See the DAL3784 flight status page for this flight to view local times or setup timezone preferences in your user account.

Time Position Orientation Groundspeed Altitude Reporting Facility
EDT Latitude Longitude Course Direction KTS MPH feet Rate Location/Type
Thu 08:02:33 PM 44.1975 -88.2836 99° East 275 316 9,700  Level Chicago Center
Thu 08:03:00 PM 44.1696 -87.9899 100° East  Level FlightAware Approximate
Thu 08:03:35 PM 44.1814 -88.1506 100° East 347 399 11,000  Level Chicago Center
Thu 08:04:00 PM 44.1512 -87.8577 101° East  Level FlightAware Approximate
Thu 08:04:38 PM 44.1625 -87.9722 98° East 398 458 12,800  Level Chicago Center
Thu 08:05:00 PM 44.1315 -87.7260 109° East  Level FlightAware Approximate
Thu 08:05:42 PM 44.1433 -87.8094 99° East 418 481 14,300  Level Minneapolis Center
Thu 08:06:00 PM 44.0924 -87.6013 125° Southeast  Level FlightAware Approximate
Thu 08:06:44 PM 44.1153 -87.6456 103° East 432 497 16,100  Level Minneapolis Center
Thu 08:07:46 PM 44.0497 -87.4961 121° Southeast 448 516 17,500 1,210 Climbing Minneapolis Center
Thu 08:08:48 PM 43.9831 -87.3431 121° Southeast 458 527 18,600 1,210 Climbing Minneapolis Center
Thu 08:09:50 PM 43.9197 -87.1953 121° Southeast 463 533 20,000 1,306 Climbing Minneapolis Center
Thu 08:10:52 PM 43.8383 -87.0097 121° Southeast 469 540 21,300 1,113 Climbing Minneapolis Center
Thu 08:11:54 PM 43.7697 -86.8511 121° Southeast 479 551 22,300 823 Climbing Minneapolis Center
Thu 08:12:56 PM 43.6969 -86.6878 122° Southeast 485 558 23,000 339 Climbing Minneapolis Center
Thu 08:13:58 PM 43.6264 -86.5269 121° Southeast 495 570 23,000  Level Minneapolis Center
Thu 08:14:58 PM 43.5531 -86.3586 121° Southeast 507 583 23,000  Level Chicago Center
Thu 08:16:00 PM 43.4772 -86.1908 122° Southeast 514 592 23,000  Level Chicago Center
Thu 08:17:02 PM 43.4036 -86.0236 121° Southeast 509 586 23,000  Level Chicago Center
Thu 08:18:05 PM 43.3525 -85.8028 108° East 502 578 23,000  Level Chicago Center
Thu 08:19:07 PM 43.3194 -85.6169 104° East 497 572 23,000  Level Chicago Center
Thu 08:20:09 PM 43.2864 -85.4311 104° East 498 573 23,000  Level Chicago Center
Thu 08:21:15 PM 43.2522 -85.2386 104° East 502 578 23,000  Level Cleveland Center
Thu 08:22:15 PM 43.2156 -85.0533 105° East 502 578 23,000  Level Cleveland Center
Thu 08:23:15 PM 43.1811 -84.8686 104° East 502 578 23,000  Level Cleveland Center
Thu 08:24:15 PM 43.1461 -84.6839 104° East 502 578 23,000  Level Cleveland Center
Thu 08:25:15 PM 43.1147 -84.5025 103° East 502 578 23,000 -650 Level Cleveland Center
Thu 08:26:15 PM 43.1461 -84.3139 77° East 470 541 21,700 -1,300 Descending Cleveland Center
Thu 08:27:15 PM 43.1928 -84.1544 68° East 451 519 20,400 -1,300 Descending Cleveland Center
Thu 08:28:15 PM 43.2058 -83.9983 83° East 429 494 19,100 -1,150 Descending Cleveland Center
Thu 08:29:15 PM 43.1561 -83.9158 130° Southeast 340 391 18,100 -1,400 Descending Cleveland Center
Thu 08:30:15 PM 43.0539 -83.8508 155° Southeast 303 349 16,300 -1,846 Descending Cleveland Center
Thu 08:30:33 PM 43.0292 -83.8381 159° South 333 383 15,700 -1,714 Descending Cleveland Center
Thu 08:30:57 PM 42.9942 -83.8164 156° South 333 383 15,100 -1,714 Descending Cleveland Center
Thu 08:31:15 PM 42.9694 -83.8067 164° South 303 349 14,500 -1,770 Descending Cleveland Center
Thu 08:31:58 PM 42.9058 -83.7750 160° South 330 380 13,300 -1,700 Descending Cleveland Center
Thu 08:32:15 PM 42.8833 -83.7625 158° South 315 362 12,800 -1,393 Descending Cleveland Center
Thu 08:32:54 PM 42.8297 -83.7342 159° South 324 373 12,000 -1,000 Descending Cleveland Center
Thu 08:33:15 PM 42.8011 -83.7158 155° Southeast 327 376 11,800 -1,182 Descending Cleveland Center
Thu 08:34:00 PM 42.7417 -83.6789 155° Southeast 302 348 10,700 -1,500 Descending Cleveland Center
Thu 08:34:15 PM 42.7253 -83.6697 158° South 321 369 10,300 -1,377 Descending Cleveland Center
Thu 08:35:01 PM 42.6719 -83.6389 157° South 251 289 9,300 -1,333 Descending Cleveland Center
Thu 08:36:03 PM 42.6233 -83.5828 140° Southeast 243 280 7,900 -1,426 Descending Cleveland Center
Thu 08:37:03 PM 42.5878 -83.5050 122° Southeast 238 274 6,400 -942 Descending Cleveland Center
Thu 08:38:04 PM 42.5522 -83.4244 121° Southeast 242 278 6,000 -273 Descending Cleveland Center
Thu 08:39:15 PM 42.5039 -83.3575 134° Southeast 238 274 5,800 -689 Descending Cleveland Center
Thu 08:40:06 PM 42.4483 -83.3267 158° South 222 255 4,600 -1,125 Descending Cleveland Center
Thu 08:41:07 PM 42.3839 -83.3183 175° South 217 250 3,700 -885 Descending Cleveland Center

Login

Don't have an account? Register now (free) for customized features, flight alerts, and more!